sensor_id;sensor_type;location;lat;lon;timestamp;P1;durP1;ratioP1;P2;durP2;ratioP2
66966;SDS011;53900;51.468;-2.586;2023-07-30T00:01:25;11.63;;;2.25;;
66966;SDS011;53900;51.468;-2.586;2023-07-30T00:03:51;16.65;;;2.17;;
66966;SDS011;53900;51.468;-2.586;2023-07-30T00:06:16;13.35;;;2.20;;
66966;SDS011;53900;51.468;-2.586;2023-07-30T00:08:41;7.43;;;1.52;;
66966;SDS011;53900;51.468;-2.586;2023-07-30T00:11:06;18.02;;;2.40;;
66966;SDS011;53900;51.468;-2.586;2023-07-30T00:13:32;10.07;;;1.90;;
66966;SDS011;53900;51.468;-2.586;2023-07-30T00:15:57;13.25;;;2.65;;
66966;SDS011;53900;51.468;-2.586;2023-07-30T00:18:22;12.30;;;1.70;;
66966;SDS011;53900;51.468;-2.586;2023-07-30T00:20:47;8.30;;;1.90;;
66966;SDS011;53900;51.468;-2.586;2023-07-30T00:23:12;13.48;;;1.98;;
66966;SDS011;53900;51.468;-2.586;2023-07-30T00:25:38;11.75;;;1.88;;
66966;SDS011;53900;51.468;-2.586;2023-07-30T00:28:03;18.02;;;2.70;;
66966;SDS011;53900;51.468;-2.586;2023-07-30T00:30:28;12.68;;;2.08;;
66966;SDS011;53900;51.468;-2.586;2023-07-30T00:32:53;12.30;;;2.10;;
66966;SDS011;53900;51.468;-2.586;2023-07-30T00:35:18;16.40;;;2.70;;
66966;SDS011;53900;51.468;-2.586;2023-07-30T00:37:44;12.32;;;2.55;;
66966;SDS011;53900;51.468;-2.586;2023-07-30T00:40:10;10.40;;;2.30;;
66966;SDS011;53900;51.468;-2.586;2023-07-30T00:42:35;15.13;;;2.28;;
66966;SDS011;53900;51.468;-2.586;2023-07-30T00:45:00;13.57;;;2.28;;
66966;SDS011;53900;51.468;-2.586;2023-07-30T00:47:25;15.80;;;2.40;;
66966;SDS011;53900;51.468;-2.586;2023-07-30T00:49:51;12.05;;;2.25;;
66966;SDS011;53900;51.468;-2.586;2023-07-30T00:52:17;16.02;;;3.08;;
66966;SDS011;53900;51.468;-2.586;2023-07-30T00:54:43;15.65;;;2.28;;
66966;SDS011;53900;51.468;-2.586;2023-07-30T00:57:08;12.95;;;2.60;;
66966;SDS011;53900;51.468;-2.586;2023-07-30T00:59:34;18.33;;;2.92;;
66966;SDS011;53900;51.468;-2.586;2023-07-30T01:01:59;15.18;;;2.67;;
66966;SDS011;53900;51.468;-2.586;2023-07-30T01:04:25;13.68;;;2.50;;
66966;SDS011;53900;51.468;-2.586;2023-07-30T01:06:50;12.00;;;2.22;;
66966;SDS011;53900;51.468;-2.586;2023-07-30T01:09:15;17.30;;;3.17;;
66966;SDS011;53900;51.468;-2.586;2023-07-30T01:11:40;15.73;;;2.35;;
66966;SDS011;53900;51.468;-2.586;2023-07-30T01:14:06;18.73;;;2.47;;
66966;SDS011;53900;51.468;-2.586;2023-07-30T01:16:33;14.63;;;2.58;;
66966;SDS011;53900;51.468;-2.586;2023-07-30T01:18:58;17.00;;;2.67;;
66966;SDS011;53900;51.468;-2.586;2023-07-30T01:21:26;13.65;;;2.65;;
66966;SDS011;53900;51.468;-2.586;2023-07-30T01:23:51;16.90;;;2.58;;
66966;SDS011;53900;51.468;-2.586;2023-07-30T01:26:19;11.73;;;2.10;;
66966;SDS011;53900;51.468;-2.586;2023-07-30T01:28:48;23.27;;;4.25;;
66966;SDS011;53900;51.468;-2.586;2023-07-30T01:31:14;13.02;;;2.30;;
66966;SDS011;53900;51.468;-2.586;2023-07-30T01:33:39;14.50;;;2.30;;
66966;SDS011;53900;51.468;-2.586;2023-07-30T01:36:05;16.60;;;2.55;;
66966;SDS011;53900;51.468;-2.586;2023-07-30T01:38:32;24.20;;;2.45;;
66966;SDS011;53900;51.468;-2.586;2023-07-30T01:40:57;17.10;;;2.30;;
66966;SDS011;53900;51.468;-2.586;2023-07-30T01:43:23;16.38;;;2.80;;
66966;SDS011;53900;51.468;-2.586;2023-07-30T01:45:48;22.40;;;2.85;;
66966;SDS011;53900;51.468;-2.586;2023-07-30T01:48:13;22.13;;;3.45;;
66966;SDS011;53900;51.468;-2.586;2023-07-30T01:50:39;18.02;;;2.47;;
66966;SDS011;53900;51.468;-2.586;2023-07-30T01:53:04;19.17;;;2.67;;
66966;SDS011;53900;51.468;-2.586;2023-07-30T01:55:29;19.10;;;2.70;;
66966;SDS011;53900;51.468;-2.586;2023-07-30T01:57:54;13.55;;;2.28;;
66966;SDS011;53900;51.468;-2.586;2023-07-30T02:00:19;14.25;;;3.05;;
66966;SDS011;53900;51.468;-2.586;2023-07-30T02:02:45;18.48;;;3.58;;
66966;SDS011;53900;51.468;-2.586;2023-07-30T02:05:10;19.67;;;3.03;;
66966;SDS011;53900;51.468;-2.586;2023-07-30T02:07:35;15.43;;;2.95;;
66966;SDS011;53900;51.468;-2.586;2023-07-30T02:10:00;22.88;;;2.80;;
66966;SDS011;53900;51.468;-2.586;2023-07-30T02:12:26;13.73;;;2.47;;
66966;SDS011;53900;51.468;-2.586;2023-07-30T02:14:51;13.68;;;2.85;;
66966;SDS011;53900;51.468;-2.586;2023-07-30T02:17:16;14.60;;;2.72;;
66966;SDS011;53900;51.468;-2.586;2023-07-30T02:19:41;23.13;;;3.00;;
66966;SDS011;53900;51.468;-2.586;2023-07-30T02:22:07;22.92;;;2.65;;
66966;SDS011;53900;51.468;-2.586;2023-07-30T02:24:32;17.55;;;2.75;;
66966;SDS011;53900;51.468;-2.586;2023-07-30T02:26:57;13.35;;;2.53;;
66966;SDS011;53900;51.468;-2.586;2023-07-30T02:29:22;12.60;;;2.22;;
66966;SDS011;53900;51.468;-2.586;2023-07-30T02:31:48;16.45;;;2.63;;
66966;SDS011;53900;51.468;-2.586;2023-07-30T02:34:13;13.18;;;2.67;;
66966;SDS011;53900;51.468;-2.586;2023-07-30T02:36:38;17.10;;;2.85;;
66966;SDS011;53900;51.468;-2.586;2023-07-30T02:39:03;19.05;;;2.50;;
66966;SDS011;53900;51.468;-2.586;2023-07-30T02:41:28;17.30;;;3.28;;
66966;SDS011;53900;51.468;-2.586;2023-07-30T02:43:54;28.73;;;3.63;;
66966;SDS011;53900;51.468;-2.586;2023-07-30T02:46:19;17.48;;;2.40;;
66966;SDS011;53900;51.468;-2.586;2023-07-30T02:48:44;23.00;;;3.40;;
66966;SDS011;53900;51.468;-2.586;2023-07-30T02:51:09;28.02;;;2.90;;
66966;SDS011;53900;51.468;-2.586;2023-07-30T02:53:34;19.80;;;3.60;;
66966;SDS011;53900;51.468;-2.586;2023-07-30T02:56:00;16.15;;;2.17;;
66966;SDS011;53900;51.468;-2.586;2023-07-30T02:58:25;13.00;;;2.55;;
66966;SDS011;53900;51.468;-2.586;2023-07-30T03:00:50;18.42;;;2.30;;
66966;SDS011;53900;51.468;-2.586;2023-07-30T03:03:16;10.70;;;2.33;;
66966;SDS011;53900;51.468;-2.586;2023-07-30T03:05:41;11.40;;;2.03;;
66966;SDS011;53900;51.468;-2.586;2023-07-30T03:08:07;19.73;;;2.20;;
66966;SDS011;53900;51.468;-2.586;2023-07-30T03:10:32;14.50;;;2.50;;
66966;SDS011;53900;51.468;-2.586;2023-07-30T03:12:57;13.52;;;1.77;;
66966;SDS011;53900;51.468;-2.586;2023-07-30T03:15:22;11.85;;;1.88;;
66966;SDS011;53900;51.468;-2.586;2023-07-30T03:17:48;19.52;;;2.63;;
66966;SDS011;53900;51.468;-2.586;2023-07-30T03:20:13;15.25;;;2.90;;
66966;SDS011;53900;51.468;-2.586;2023-07-30T03:22:38;14.57;;;2.30;;
66966;SDS011;53900;51.468;-2.586;2023-07-30T03:25:03;22.00;;;2.63;;
66966;SDS011;53900;51.468;-2.586;2023-07-30T03:27:29;20.33;;;2.50;;
66966;SDS011;53900;51.468;-2.586;2023-07-30T03:29:54;19.42;;;2.45;;
66966;SDS011;53900;51.468;-2.586;2023-07-30T03:32:19;15.70;;;2.13;;
66966;SDS011;53900;51.468;-2.586;2023-07-30T03:34:44;17.90;;;2.42;;
66966;SDS011;53900;51.468;-2.586;2023-07-30T03:37:09;14.32;;;2.25;;
66966;SDS011;53900;51.468;-2.586;2023-07-30T03:39:35;13.27;;;1.80;;
66966;SDS011;53900;51.468;-2.586;2023-07-30T03:42:00;12.82;;;2.28;;
66966;SDS011;53900;51.468;-2.586;2023-07-30T03:44:26;12.82;;;2.08;;
66966;SDS011;53900;51.468;-2.586;2023-07-30T03:46:51;12.90;;;2.53;;
66966;SDS011;53900;51.468;-2.586;2023-07-30T03:49:16;20.55;;;2.72;;
66966;SDS011;53900;51.468;-2.586;2023-07-30T03:51:41;15.30;;;2.58;;
66966;SDS011;53900;51.468;-2.586;2023-07-30T03:54:06;20.77;;;2.50;;
66966;SDS011;53900;51.468;-2.586;2023-07-30T03:56:32;13.32;;;2.13;;
66966;SDS011;53900;51.468;-2.586;2023-07-30T03:58:57;12.82;;;2.25;;
66966;SDS011;53900;51.468;-2.586;2023-07-30T04:01:22;8.82;;;2.08;;
66966;SDS011;53900;51.468;-2.586;2023-07-30T04:03:47;16.42;;;2.40;;
66966;SDS011;53900;51.468;-2.586;2023-07-30T04:06:13;14.68;;;3.42;;
66966;SDS011;53900;51.468;-2.586;2023-07-30T04:08:38;14.57;;;2.55;;
66966;SDS011;53900;51.468;-2.586;2023-07-30T04:11:03;14.75;;;2.25;;
66966;SDS011;53900;51.468;-2.586;2023-07-30T04:13:28;13.88;;;2.13;;
66966;SDS011;53900;51.468;-2.586;2023-07-30T04:15:53;12.63;;;2.03;;
66966;SDS011;53900;51.468;-2.586;2023-07-30T04:18:19;11.90;;;2.13;;
66966;SDS011;53900;51.468;-2.586;2023-07-30T04:20:44;20.23;;;3.78;;
66966;SDS011;53900;51.468;-2.586;2023-07-30T04:23:10;10.20;;;2.67;;
66966;SDS011;53900;51.468;-2.586;2023-07-30T04:25:35;13.93;;;2.75;;
66966;SDS011;53900;51.468;-2.586;2023-07-30T04:28:00;13.15;;;2.47;;
66966;SDS011;53900;51.468;-2.586;2023-07-30T04:30:25;14.15;;;2.22;;
66966;SDS011;53900;51.468;-2.586;2023-07-30T04:32:50;14.68;;;2.78;;
66966;SDS011;53900;51.468;-2.586;2023-07-30T04:35:16;11.07;;;1.95;;
66966;SDS011;53900;51.468;-2.586;2023-07-30T04:37:41;12.93;;;2.05;;
66966;SDS011;53900;51.468;-2.586;2023-07-30T04:40:06;11.60;;;1.67;;
66966;SDS011;53900;51.468;-2.586;2023-07-30T04:42:32;8.38;;;1.83;;
66966;SDS011;53900;51.468;-2.586;2023-07-30T04:44:57;9.20;;;1.90;;
66966;SDS011;53900;51.468;-2.586;2023-07-30T04:47:22;12.50;;;2.45;;
66966;SDS011;53900;51.468;-2.586;2023-07-30T04:49:47;9.73;;;2.45;;
66966;SDS011;53900;51.468;-2.586;2023-07-30T04:52:12;11.88;;;2.05;;
66966;SDS011;53900;51.468;-2.586;2023-07-30T04:54:38;31.92;;;2.78;;
66966;SDS011;53900;51.468;-2.586;2023-07-30T04:57:03;17.85;;;2.70;;
66966;SDS011;53900;51.468;-2.586;2023-07-30T04:59:28;15.68;;;2.13;;
66966;SDS011;53900;51.468;-2.586;2023-07-30T05:01:54;12.20;;;1.90;;
66966;SDS011;53900;51.468;-2.586;2023-07-30T05:04:19;11.25;;;2.10;;
66966;SDS011;53900;51.468;-2.586;2023-07-30T05:06:44;14.80;;;2.20;;
66966;SDS011;53900;51.468;-2.586;2023-07-30T05:09:09;10.65;;;2.00;;
66966;SDS011;53900;51.468;-2.586;2023-07-30T05:11:36;19.83;;;2.30;;
66966;SDS011;53900;51.468;-2.586;2023-07-30T05:14:01;13.50;;;2.53;;
66966;SDS011;53900;51.468;-2.586;2023-07-30T05:16:27;15.73;;;2.60;;
66966;SDS011;53900;51.468;-2.586;2023-07-30T05:18:52;16.67;;;2.72;;
66966;SDS011;53900;51.468;-2.586;2023-07-30T05:21:17;12.38;;;2.47;;
66966;SDS011;53900;51.468;-2.586;2023-07-30T05:23:42;14.93;;;2.58;;
66966;SDS011;53900;51.468;-2.586;2023-07-30T05:26:07;14.80;;;2.15;;
66966;SDS011;53900;51.468;-2.586;2023-07-30T05:28:33;18.17;;;2.63;;
66966;SDS011;53900;51.468;-2.586;2023-07-30T05:30:58;13.43;;;3.30;;
66966;SDS011;53900;51.468;-2.586;2023-07-30T05:33:23;15.32;;;2.85;;
66966;SDS011;53900;51.468;-2.586;2023-07-30T05:35:48;15.23;;;2.50;;
66966;SDS011;53900;51.468;-2.586;2023-07-30T05:38:14;13.18;;;2.50;;
66966;SDS011;53900;51.468;-2.586;2023-07-30T05:40:39;15.10;;;2.17;;
66966;SDS011;53900;51.468;-2.586;2023-07-30T05:43:04;9.30;;;1.92;;
66966;SDS011;53900;51.468;-2.586;2023-07-30T05:45:29;12.80;;;2.13;;
66966;SDS011;53900;51.468;-2.586;2023-07-30T05:47:54;13.00;;;2.65;;
66966;SDS011;53900;51.468;-2.586;2023-07-30T05:50:20;12.05;;;2.42;;
66966;SDS011;53900;51.468;-2.586;2023-07-30T05:52:45;17.42;;;2.58;;
66966;SDS011;53900;51.468;-2.586;2023-07-30T05:55:10;13.05;;;2.33;;
66966;SDS011;53900;51.468;-2.586;2023-07-30T05:57:36;14.27;;;2.40;;
66966;SDS011;53900;51.468;-2.586;2023-07-30T06:00:01;11.02;;;2.17;;
66966;SDS011;53900;51.468;-2.586;2023-07-30T06:02:27;12.85;;;2.35;;
66966;SDS011;53900;51.468;-2.586;2023-07-30T06:04:52;11.05;;;2.53;;
66966;SDS011;53900;51.468;-2.586;2023-07-30T06:07:17;12.07;;;2.42;;
66966;SDS011;53900;51.468;-2.586;2023-07-30T06:09:42;18.83;;;2.85;;
66966;SDS011;53900;51.468;-2.586;2023-07-30T06:12:08;14.70;;;2.33;;
66966;SDS011;53900;51.468;-2.586;2023-07-30T06:14:33;8.45;;;2.13;;
66966;SDS011;53900;51.468;-2.586;2023-07-30T06:16:58;11.93;;;2.20;;
66966;SDS011;53900;51.468;-2.586;2023-07-30T06:19:24;10.02;;;2.28;;
66966;SDS011;53900;51.468;-2.586;2023-07-30T06:21:49;10.73;;;2.55;;
66966;SDS011;53900;51.468;-2.586;2023-07-30T06:24:14;13.05;;;2.40;;
66966;SDS011;53900;51.468;-2.586;2023-07-30T06:26:39;13.93;;;2.10;;
66966;SDS011;53900;51.468;-2.586;2023-07-30T06:29:04;15.70;;;2.00;;
66966;SDS011;53900;51.468;-2.586;2023-07-30T06:31:30;10.18;;;2.10;;
66966;SDS011;53900;51.468;-2.586;2023-07-30T06:33:55;16.33;;;2.90;;
66966;SDS011;53900;51.468;-2.586;2023-07-30T06:36:20;7.47;;;1.73;;
66966;SDS011;53900;51.468;-2.586;2023-07-30T06:38:46;13.63;;;2.15;;
66966;SDS011;53900;51.468;-2.586;2023-07-30T06:41:11;22.80;;;2.45;;
66966;SDS011;53900;51.468;-2.586;2023-07-30T06:43:36;10.40;;;1.98;;
66966;SDS011;53900;51.468;-2.586;2023-07-30T06:46:01;9.90;;;2.35;;
66966;SDS011;53900;51.468;-2.586;2023-07-30T06:48:27;12.20;;;2.85;;
66966;SDS011;53900;51.468;-2.586;2023-07-30T06:50:52;13.20;;;2.38;;
66966;SDS011;53900;51.468;-2.586;2023-07-30T06:53:17;18.80;;;3.97;;
66966;SDS011;53900;51.468;-2.586;2023-07-30T06:55:42;9.88;;;2.10;;
66966;SDS011;53900;51.468;-2.586;2023-07-30T06:58:08;16.25;;;3.38;;
66966;SDS011;53900;51.468;-2.586;2023-07-30T07:00:33;13.70;;;2.30;;
66966;SDS011;53900;51.468;-2.586;2023-07-30T07:02:58;13.90;;;2.80;;
66966;SDS011;53900;51.468;-2.586;2023-07-30T07:05:23;15.80;;;3.03;;
66966;SDS011;53900;51.468;-2.586;2023-07-30T07:07:49;17.83;;;3.03;;
66966;SDS011;53900;51.468;-2.586;2023-07-30T07:10:14;12.93;;;2.20;;
66966;SDS011;53900;51.468;-2.586;2023-07-30T07:12:40;11.80;;;2.30;;
66966;SDS011;53900;51.468;-2.586;2023-07-30T07:15:05;20.45;;;2.80;;
66966;SDS011;53900;51.468;-2.586;2023-07-30T07:17:30;11.20;;;2.38;;
66966;SDS011;53900;51.468;-2.586;2023-07-30T07:19:56;11.65;;;2.75;;
66966;SDS011;53900;51.468;-2.586;2023-07-30T07:22:21;12.95;;;3.03;;
66966;SDS011;53900;51.468;-2.586;2023-07-30T07:24:47;10.43;;;1.90;;
66966;SDS011;53900;51.468;-2.586;2023-07-30T07:27:12;9.65;;;2.42;;
66966;SDS011;53900;51.468;-2.586;2023-07-30T07:29:37;7.00;;;2.38;;
66966;SDS011;53900;51.468;-2.586;2023-07-30T07:32:03;11.20;;;2.53;;
66966;SDS011;53900;51.468;-2.586;2023-07-30T07:34:28;11.98;;;2.25;;
66966;SDS011;53900;51.468;-2.586;2023-07-30T07:36:53;10.20;;;2.38;;
66966;SDS011;53900;51.468;-2.586;2023-07-30T07:39:19;15.77;;;2.60;;
66966;SDS011;53900;51.468;-2.586;2023-07-30T07:41:44;12.40;;;2.53;;
66966;SDS011;53900;51.468;-2.586;2023-07-30T07:44:09;15.18;;;2.60;;
66966;SDS011;53900;51.468;-2.586;2023-07-30T07:46:34;13.55;;;2.88;;
66966;SDS011;53900;51.468;-2.586;2023-07-30T07:49:00;18.02;;;3.20;;
66966;SDS011;53900;51.468;-2.586;2023-07-30T07:51:25;22.48;;;2.83;;
66966;SDS011;53900;51.468;-2.586;2023-07-30T07:53:50;9.75;;;2.25;;
66966;SDS011;53900;51.468;-2.586;2023-07-30T07:56:15;13.65;;;2.40;;
66966;SDS011;53900;51.468;-2.586;2023-07-30T07:58:40;15.48;;;2.78;;
66966;SDS011;53900;51.468;-2.586;2023-07-30T08:01:07;19.48;;;2.97;;
66966;SDS011;53900;51.468;-2.586;2023-07-30T08:03:33;16.27;;;2.88;;
66966;SDS011;53900;51.468;-2.586;2023-07-30T08:05:58;14.97;;;2.93;;
66966;SDS011;53900;51.468;-2.586;2023-07-30T08:08:25;12.55;;;2.53;;
66966;SDS011;53900;51.468;-2.586;2023-07-30T08:10:50;16.25;;;2.50;;
66966;SDS011;53900;51.468;-2.586;2023-07-30T08:13:15;14.23;;;3.10;;
66966;SDS011;53900;51.468;-2.586;2023-07-30T08:15:40;17.08;;;3.05;;
66966;SDS011;53900;51.468;-2.586;2023-07-30T08:18:05;17.13;;;2.92;;
66966;SDS011;53900;51.468;-2.586;2023-07-30T08:20:31;17.77;;;2.97;;
66966;SDS011;53900;51.468;-2.586;2023-07-30T08:22:56;16.05;;;2.80;;
66966;SDS011;53900;51.468;-2.586;2023-07-30T08:25:21;15.85;;;3.17;;
66966;SDS011;53900;51.468;-2.586;2023-07-30T08:27:46;12.30;;;2.80;;
66966;SDS011;53900;51.468;-2.586;2023-07-30T08:30:12;12.35;;;2.65;;
66966;SDS011;53900;51.468;-2.586;2023-07-30T08:32:37;12.23;;;2.60;;
66966;SDS011;53900;51.468;-2.586;2023-07-30T08:35:03;10.57;;;2.40;;
66966;SDS011;53900;51.468;-2.586;2023-07-30T08:37:28;11.80;;;3.35;;
66966;SDS011;53900;51.468;-2.586;2023-07-30T08:39:53;7.85;;;2.63;;
66966;SDS011;53900;51.468;-2.586;2023-07-30T08:42:18;7.88;;;2.17;;
66966;SDS011;53900;51.468;-2.586;2023-07-30T08:44:44;8.57;;;2.03;;
66966;SDS011;53900;51.468;-2.586;2023-07-30T08:47:09;7.55;;;1.77;;
66966;SDS011;53900;51.468;-2.586;2023-07-30T08:49:35;5.30;;;1.73;;
66966;SDS011;53900;51.468;-2.586;2023-07-30T08:52:00;7.18;;;1.80;;
66966;SDS011;53900;51.468;-2.586;2023-07-30T08:54:26;5.20;;;1.67;;
66966;SDS011;53900;51.468;-2.586;2023-07-30T08:56:52;8.95;;;2.40;;
66966;SDS011;53900;51.468;-2.586;2023-07-30T08:59:18;9.45;;;1.98;;
66966;SDS011;53900;51.468;-2.586;2023-07-30T09:01:44;5.68;;;1.70;;
66966;SDS011;53900;51.468;-2.586;2023-07-30T09:04:10;5.38;;;1.73;;
66966;SDS011;53900;51.468;-2.586;2023-07-30T09:06:35;5.70;;;1.50;;
66966;SDS011;53900;51.468;-2.586;2023-07-30T09:09:01;5.85;;;1.77;;
66966;SDS011;53900;51.468;-2.586;2023-07-30T09:11:28;2.50;;;1.30;;
66966;SDS011;53900;51.468;-2.586;2023-07-30T09:13:53;5.60;;;1.70;;
66966;SDS011;53900;51.468;-2.586;2023-07-30T09:16:19;3.92;;;1.48;;
66966;SDS011;53900;51.468;-2.586;2023-07-30T09:18:49;4.88;;;1.40;;
66966;SDS011;53900;51.468;-2.586;2023-07-30T09:21:14;5.28;;;1.23;;
66966;SDS011;53900;51.468;-2.586;2023-07-30T09:23:43;4.45;;;1.52;;
66966;SDS011;53900;51.468;-2.586;2023-07-30T09:26:09;2.28;;;1.27;;
66966;SDS011;53900;51.468;-2.586;2023-07-30T09:28:34;1.15;;;0.77;;
66966;SDS011;53900;51.468;-2.586;2023-07-30T09:31:03;4.53;;;0.88;;
66966;SDS011;53900;51.468;-2.586;2023-07-30T09:33:28;1.17;;;0.60;;
66966;SDS011;53900;51.468;-2.586;2023-07-30T09:35:54;1.25;;;0.50;;
66966;SDS011;53900;51.468;-2.586;2023-07-30T09:38:20;0.68;;;0.40;;
66966;SDS011;53900;51.468;-2.586;2023-07-30T09:40:45;0.70;;;0.70;;
66966;SDS011;53900;51.468;-2.586;2023-07-30T09:43:14;0.30;;;0.30;;
66966;SDS011;53900;51.468;-2.586;2023-07-30T09:45:39;2.05;;;1.30;;
66966;SDS011;53900;51.468;-2.586;2023-07-30T09:48:05;0.50;;;0.50;;
66966;SDS011;53900;51.468;-2.586;2023-07-30T09:50:31;1.05;;;0.80;;
66966;SDS011;53900;51.468;-2.586;2023-07-30T09:52:57;2.03;;;0.60;;
66966;SDS011;53900;51.468;-2.586;2023-07-30T09:55:23;1.65;;;1.10;;
66966;SDS011;53900;51.468;-2.586;2023-07-30T09:57:48;1.30;;;0.80;;
66966;SDS011;53900;51.468;-2.586;2023-07-30T10:00:13;1.15;;;0.70;;
66966;SDS011;53900;51.468;-2.586;2023-07-30T10:02:39;1.35;;;0.73;;
66966;SDS011;53900;51.468;-2.586;2023-07-30T10:05:11;1.75;;;0.90;;
66966;SDS011;53900;51.468;-2.586;2023-07-30T10:07:41;3.53;;;1.00;;
66966;SDS011;53900;51.468;-2.586;2023-07-30T10:10:07;0.55;;;0.55;;
66966;SDS011;53900;51.468;-2.586;2023-07-30T10:12:33;3.33;;;0.68;;
66966;SDS011;53900;51.468;-2.586;2023-07-30T10:15:00;2.47;;;0.90;;
66966;SDS011;53900;51.468;-2.586;2023-07-30T10:17:25;1.40;;;0.80;;
66966;SDS011;53900;51.468;-2.586;2023-07-30T10:19:50;3.65;;;1.20;;
66966;SDS011;53900;51.468;-2.586;2023-07-30T10:22:20;2.13;;;0.98;;
66966;SDS011;53900;51.468;-2.586;2023-07-30T10:25:03;2.55;;;1.35;;
66966;SDS011;53900;51.468;-2.586;2023-07-30T10:27:39;2.95;;;0.85;;
66966;SDS011;53900;51.468;-2.586;2023-07-30T10:30:11;2.08;;;1.05;;
66966;SDS011;53900;51.468;-2.586;2023-07-30T10:35:35;5.85;;;1.67;;
66966;SDS011;53900;51.468;-2.586;2023-07-30T10:38:12;2.67;;;0.90;;
66966;SDS011;53900;51.468;-2.586;2023-07-30T10:40:38;1.27;;;0.90;;
66966;SDS011;53900;51.468;-2.586;2023-07-30T10:43:04;2.47;;;1.00;;
66966;SDS011;53900;51.468;-2.586;2023-07-30T10:45:47;0.90;;;0.70;;
66966;SDS011;53900;51.468;-2.586;2023-07-30T10:48:12;3.33;;;0.85;;
66966;SDS011;53900;51.468;-2.586;2023-07-30T10:50:38;1.92;;;0.90;;
66966;SDS011;53900;51.468;-2.586;2023-07-30T10:53:03;4.13;;;1.00;;
66966;SDS011;53900;51.468;-2.586;2023-07-30T10:55:31;1.08;;;0.60;;
66966;SDS011;53900;51.468;-2.586;2023-07-30T10:57:56;2.75;;;0.80;;
66966;SDS011;53900;51.468;-2.586;2023-07-30T11:00:22;2.35;;;0.90;;
66966;SDS011;53900;51.468;-2.586;2023-07-30T11:02:53;4.40;;;1.00;;
66966;SDS011;53900;51.468;-2.586;2023-07-30T11:05:18;2.08;;;0.70;;
66966;SDS011;53900;51.468;-2.586;2023-07-30T11:07:50;4.13;;;1.30;;
66966;SDS011;53900;51.468;-2.586;2023-07-30T11:10:15;0.60;;;0.60;;
66966;SDS011;53900;51.468;-2.586;2023-07-30T11:12:40;1.20;;;0.70;;
66966;SDS011;53900;51.468;-2.586;2023-07-30T11:15:06;1.83;;;0.60;;
66966;SDS011;53900;51.468;-2.586;2023-07-30T11:17:31;2.30;;;1.00;;
66966;SDS011;53900;51.468;-2.586;2023-07-30T11:19:56;2.13;;;0.93;;
66966;SDS011;53900;51.468;-2.586;2023-07-30T11:22:31;2.92;;;0.60;;
66966;SDS011;53900;51.468;-2.586;2023-07-30T11:24:57;1.52;;;0.85;;
66966;SDS011;53900;51.468;-2.586;2023-07-30T11:27:22;1.48;;;0.73;;
66966;SDS011;53900;51.468;-2.586;2023-07-30T11:29:54;1.35;;;0.80;;
66966;SDS011;53900;51.468;-2.586;2023-07-30T11:32:20;0.77;;;0.60;;
66966;SDS011;53900;51.468;-2.586;2023-07-30T11:34:45;2.22;;;0.60;;
66966;SDS011;53900;51.468;-2.586;2023-07-30T11:37:10;3.45;;;0.70;;
66966;SDS011;53900;51.468;-2.586;2023-07-30T11:39:36;1.17;;;0.60;;
66966;SDS011;53900;51.468;-2.586;2023-07-30T11:42:01;0.50;;;0.47;;
66966;SDS011;53900;51.468;-2.586;2023-07-30T11:44:44;0.57;;;0.52;;
66966;SDS011;53900;51.468;-2.586;2023-07-30T11:47:09;4.03;;;0.60;;
66966;SDS011;53900;51.468;-2.586;2023-07-30T11:49:35;0.40;;;0.40;;
66966;SDS011;53900;51.468;-2.586;2023-07-30T11:52:09;1.05;;;0.60;;
66966;SDS011;53900;51.468;-2.586;2023-07-30T11:54:35;0.40;;;0.40;;
66966;SDS011;53900;51.468;-2.586;2023-07-30T11:57:00;0.40;;;0.30;;
66966;SDS011;53900;51.468;-2.586;2023-07-30T11:59:25;1.00;;;0.60;;
66966;SDS011;53900;51.468;-2.586;2023-07-30T12:01:50;1.35;;;0.55;;
66966;SDS011;53900;51.468;-2.586;2023-07-30T12:04:16;0.30;;;0.30;;
66966;SDS011;53900;51.468;-2.586;2023-07-30T12:06:42;0.70;;;0.70;;
66966;SDS011;53900;51.468;-2.586;2023-07-30T12:11:43;0.70;;;0.60;;
66966;SDS011;53900;51.468;-2.586;2023-07-30T12:14:09;0.75;;;0.30;;
66966;SDS011;53900;51.468;-2.586;2023-07-30T12:16:34;1.27;;;0.52;;
66966;SDS011;53900;51.468;-2.586;2023-07-30T12:18:59;1.00;;;0.40;;
66966;SDS011;53900;51.468;-2.586;2023-07-30T12:21:24;0.38;;;0.30;;
66966;SDS011;53900;51.468;-2.586;2023-07-30T12:23:49;0.40;;;0.40;;
66966;SDS011;53900;51.468;-2.586;2023-07-30T12:26:15;0.30;;;0.30;;
66966;SDS011;53900;51.468;-2.586;2023-07-30T12:28:40;0.63;;;0.60;;
66966;SDS011;53900;51.468;-2.586;2023-07-30T12:31:05;2.60;;;1.10;;
66966;SDS011;53900;51.468;-2.586;2023-07-30T12:33:31;2.17;;;0.90;;
66966;SDS011;53900;51.468;-2.586;2023-07-30T12:35:56;3.03;;;1.20;;
66966;SDS011;53900;51.468;-2.586;2023-07-30T12:38:21;3.28;;;1.20;;
66966;SDS011;53900;51.468;-2.586;2023-07-30T12:40:47;3.53;;;1.05;;
66966;SDS011;53900;51.468;-2.586;2023-07-30T12:43:12;5.82;;;2.22;;
66966;SDS011;53900;51.468;-2.586;2023-07-30T12:45:38;9.18;;;2.03;;
66966;SDS011;53900;51.468;-2.586;2023-07-30T12:48:04;7.40;;;1.58;;
66966;SDS011;53900;51.468;-2.586;2023-07-30T12:50:29;4.85;;;1.58;;
66966;SDS011;53900;51.468;-2.586;2023-07-30T12:52:54;10.10;;;2.30;;
66966;SDS011;53900;51.468;-2.586;2023-07-30T12:55:19;7.65;;;2.13;;
66966;SDS011;53900;51.468;-2.586;2023-07-30T12:57:45;9.55;;;2.28;;
66966;SDS011;53900;51.468;-2.586;2023-07-30T13:00:10;11.15;;;2.63;;
66966;SDS011;53900;51.468;-2.586;2023-07-30T13:02:35;51.47;;;4.03;;
66966;SDS011;53900;51.468;-2.586;2023-07-30T13:05:01;7.22;;;2.20;;
66966;SDS011;53900;51.468;-2.586;2023-07-30T13:07:26;9.13;;;2.70;;
66966;SDS011;53900;51.468;-2.586;2023-07-30T13:12:29;13.10;;;2.90;;
66966;SDS011;53900;51.468;-2.586;2023-07-30T13:14:54;10.52;;;2.90;;
66966;SDS011;53900;51.468;-2.586;2023-07-30T13:17:19;14.00;;;3.10;;
66966;SDS011;53900;51.468;-2.586;2023-07-30T13:19:44;18.80;;;4.38;;
66966;SDS011;53900;51.468;-2.586;2023-07-30T13:22:10;13.40;;;3.30;;
66966;SDS011;53900;51.468;-2.586;2023-07-30T13:24:35;19.13;;;3.28;;
66966;SDS011;53900;51.468;-2.586;2023-07-30T13:27:01;20.33;;;3.65;;
66966;SDS011;53900;51.468;-2.586;2023-07-30T13:29:26;9.75;;;3.30;;
66966;SDS011;53900;51.468;-2.586;2023-07-30T13:31:51;13.95;;;3.45;;
66966;SDS011;53900;51.468;-2.586;2023-07-30T13:34:17;14.98;;;3.35;;
66966;SDS011;53900;51.468;-2.586;2023-07-30T13:36:42;11.90;;;3.35;;
66966;SDS011;53900;51.468;-2.586;2023-07-30T13:39:07;17.95;;;3.55;;
66966;SDS011;53900;51.468;-2.586;2023-07-30T13:41:32;14.90;;;3.13;;
66966;SDS011;53900;51.468;-2.586;2023-07-30T13:43:58;15.90;;;3.42;;
66966;SDS011;53900;51.468;-2.586;2023-07-30T13:46:23;13.68;;;3.10;;
66966;SDS011;53900;51.468;-2.586;2023-07-30T13:48:48;13.35;;;3.00;;
66966;SDS011;53900;51.468;-2.586;2023-07-30T13:51:13;15.73;;;3.25;;
66966;SDS011;53900;51.468;-2.586;2023-07-30T13:53:38;14.75;;;3.15;;
66966;SDS011;53900;51.468;-2.586;2023-07-30T13:56:06;11.07;;;2.83;;
66966;SDS011;53900;51.468;-2.586;2023-07-30T13:58:31;9.35;;;2.70;;
66966;SDS011;53900;51.468;-2.586;2023-07-30T14:00:56;10.30;;;2.60;;
66966;SDS011;53900;51.468;-2.586;2023-07-30T14:03:22;10.98;;;2.85;;
66966;SDS011;53900;51.468;-2.586;2023-07-30T14:05:47;7.28;;;2.53;;
66966;SDS011;53900;51.468;-2.586;2023-07-30T14:08:12;13.32;;;2.95;;
66966;SDS011;53900;51.468;-2.586;2023-07-30T14:10:37;12.00;;;2.95;;
66966;SDS011;53900;51.468;-2.586;2023-07-30T14:13:02;12.70;;;3.22;;
66966;SDS011;53900;51.468;-2.586;2023-07-30T14:15:28;14.40;;;3.30;;
66966;SDS011;53900;51.468;-2.586;2023-07-30T14:17:53;8.98;;;2.80;;
66966;SDS011;53900;51.468;-2.586;2023-07-30T14:20:19;15.88;;;4.10;;
66966;SDS011;53900;51.468;-2.586;2023-07-30T14:22:44;15.18;;;3.72;;
66966;SDS011;53900;51.468;-2.586;2023-07-30T14:25:10;16.50;;;4.50;;